»·PEaware :: SKY132 KORS-KEAT

SKY132 :: KORS-KEAT

FLIGHT INFORMATION

Flight Status: Arrived
Operator:
Sky High Charters
More flights by this operator :: More flights under this callsign
Pilot: Dustin L. (16270)
Aircraft: BEECH AIRCRAFT BARON
(BE58)
More flights by this aircraft type
Origin: KORS Orcas I
United States
Destination: KEAT Pangborn Meml
United States
More flights between these airports :: More routes between these airports
Route: +FEGBA2 FEGBA SEA VS ELN V25 EAT
File this flight plan on PilotEdge
Remarks: SKY HIGH CHARTER 3 PRACTICE
Altitude:
(Current/Filed)
9,000ft
Speed:
(Current/Filed)
170kts
Departed: 11-Feb-19 12:47 PM
Arrived: 11-Feb-19 02:06 PM
Distance/Time
Traveled:
134nm/1:19
Distance/Time
To Go:
Arrived

Flight Plot

Page will automatically refresh every two minutes.

Flight plan parsing failed; only flown route is shown


Map Options




Map Legend


Flown Route
Filed Route
Departure Airport
Arrival Airport
Navaid (VOR, NDB)
Fix

Horizontal Profiles

Position Reports

Time Latitude Longitude Heading Altitude Ground
Speed
11-Feb-19 12:35 48.709706 -122.909368 233 25ft 0kts
11-Feb-19 12:36 48.709706 -122.909368 233 25ft 0kts
11-Feb-19 12:37 48.709706 -122.909368 233 25ft 0kts
11-Feb-19 12:38 48.709706 -122.909368 233 25ft 0kts
11-Feb-19 12:39 48.709706 -122.909368 233 25ft 0kts
11-Feb-19 12:40 48.707806 -122.910627 176 29ft 14kts
11-Feb-19 12:41 48.704836 -122.909978 174 37ft 0kts
11-Feb-19 12:42 48.704836 -122.909978 174 37ft 0kts
11-Feb-19 12:43 48.704598 -122.910607 352 39ft 0kts
11-Feb-19 12:44 48.709029 -122.910581 359 25ft 17kts
11-Feb-19 12:45 48.711826 -122.909963 0 20ft 2kts
11-Feb-19 12:46 48.699115 -122.910307 170 264ft 129kts
11-Feb-19 12:47 48.659736 -122.933016 185 1406ft 153kts
11-Feb-19 12:48 48.619473 -122.935142 178 2951ft 151kts
11-Feb-19 12:49 48.580213 -122.922454 169 4353ft 153kts
11-Feb-19 12:50 48.540379 -122.913887 174 5667ft 153kts
11-Feb-19 12:51 48.500868 -122.895448 162 6952ft 155kts
11-Feb-19 12:52 48.463477 -122.874508 164 8156ft 155kts
11-Feb-19 12:53 48.426438 -122.853834 164 8993ft 173kts
11-Feb-19 12:54 48.383864 -122.830043 161 8980ft 194kts
11-Feb-19 12:55 48.331707 -122.800863 159 8987ft 194kts
11-Feb-19 12:56 48.288290 -122.776602 158 8989ft 193kts
11-Feb-19 12:57 48.245551 -122.752804 158 8989ft 193kts
11-Feb-19 12:58 48.202137 -122.728681 158 8989ft 193kts
11-Feb-19 12:59 48.159681 -122.705119 158 9060ft 189kts
11-Feb-19 13:00 48.118514 -122.682326 158 9072ft 192kts
11-Feb-19 13:01 48.073681 -122.657549 158 9072ft 190kts
11-Feb-19 13:02 48.029331 -122.633073 158 9071ft 190kts
11-Feb-19 13:03 47.982821 -122.607416 159 9060ft 192kts
11-Feb-19 13:04 47.939118 -122.583370 161 9039ft 195kts
11-Feb-19 13:05 47.894785 -122.559065 162 9018ft 196kts
11-Feb-19 13:06 47.850408 -122.534779 162 9001ft 196kts
11-Feb-19 13:07 47.806282 -122.510657 163 9000ft 194kts
11-Feb-19 13:08 47.762710 -122.486879 163 9007ft 193kts
11-Feb-19 13:09 47.718752 -122.462946 164 9013ft 191kts
11-Feb-19 13:10 47.676852 -122.440156 164 9020ft 189kts
11-Feb-19 13:11 47.631705 -122.415669 164 9024ft 188kts
11-Feb-19 13:12 47.578449 -122.386824 164 9026ft 187kts
11-Feb-19 13:13 47.531593 -122.361493 164 9025ft 187kts
11-Feb-19 13:14 47.493310 -122.340849 165 9018ft 186kts
11-Feb-19 13:15 47.444937 -122.314081 150 9005ft 191kts
11-Feb-19 13:16 47.425445 -122.259296 107 9012ft 192kts
11-Feb-19 13:17 47.412210 -122.200173 106 9013ft 192kts
11-Feb-19 13:18 47.399659 -122.141918 107 9015ft 192kts
11-Feb-19 13:19 47.386127 -122.079086 107 9015ft 193kts
11-Feb-19 13:20 47.372633 -122.016390 107 9015ft 194kts
11-Feb-19 13:21 47.346773 -121.896666 107 9014ft 194kts
11-Feb-19 13:22 47.312851 -121.740645 107 9013ft 195kts
11-Feb-19 13:23 47.294151 -121.655137 107 9017ft 195kts
11-Feb-19 13:24 47.277424 -121.578947 107 9017ft 195kts
11-Feb-19 13:25 47.260559 -121.502410 107 9017ft 196kts
11-Feb-19 13:26 47.243655 -121.426005 107 9020ft 196kts
11-Feb-19 13:27 47.226379 -121.348470 105 8878ft 197kts
11-Feb-19 13:28 47.210231 -121.274746 115 8893ft 180kts
11-Feb-19 13:29 47.194395 -121.204796 115 8917ft 181kts
11-Feb-19 13:30 47.178334 -121.133305 114 8922ft 184kts
11-Feb-19 13:31 47.162188 -121.061536 113 8922ft 185kts
11-Feb-19 13:32 47.146007 -120.989869 113 8923ft 185kts
11-Feb-19 13:33 47.131688 -120.926616 113 8923ft 185kts
11-Feb-19 13:34 47.117441 -120.863835 113 8923ft 185kts
11-Feb-19 13:35 47.103345 -120.801918 113 8923ft 185kts
11-Feb-19 13:36 47.088651 -120.737563 113 8923ft 185kts
11-Feb-19 13:37 47.074148 -120.674253 113 8924ft 185kts
11-Feb-19 13:38 47.060140 -120.613307 113 8924ft 185kts
11-Feb-19 13:39 47.045774 -120.550989 113 8924ft 185kts
11-Feb-19 13:40 47.030614 -120.485070 109 8922ft 187kts
11-Feb-19 13:41 47.057699 -120.436606 21 8926ft 188kts
11-Feb-19 13:42 47.100061 -120.408782 20 8931ft 189kts
11-Feb-19 13:43 47.161134 -120.368646 21 8947ft 190kts
11-Feb-19 13:44 47.218668 -120.330637 18 8968ft 169kts
11-Feb-19 13:45 47.261373 -120.302434 18 8983ft 167kts
11-Feb-19 13:46 47.304110 -120.274012 20 8992ft 170kts
11-Feb-19 13:47 47.346500 -120.245670 18 8996ft 170kts
11-Feb-19 13:48 47.388395 -120.218211 18 8997ft 170kts
11-Feb-19 13:49 47.423272 -120.172084 69 8739ft 194kts
11-Feb-19 13:50 47.422690 -120.092048 91 8071ft 203kts
11-Feb-19 13:51 47.414782 -120.008305 99 7042ft 206kts
11-Feb-19 13:52 47.393642 -119.930580 107 5940ft 206kts
11-Feb-19 13:53 47.364183 -119.873253 144 4950ft 205kts
11-Feb-19 13:54 47.314536 -119.848555 180 4985ft 178kts
11-Feb-19 13:55 47.268060 -119.865915 212 4986ft 172kts
11-Feb-19 13:56 47.236796 -119.920218 251 4284ft 187kts
11-Feb-19 13:57 47.236540 -119.990964 290 3921ft 169kts
11-Feb-19 13:58 47.257463 -120.035233 320 3920ft 136kts
11-Feb-19 14:00 47.282304 -120.056730 333 3690ft 113kts
11-Feb-19 14:01 47.307840 -120.076071 333 3042ft 111kts
11-Feb-19 14:02 47.331290 -120.093960 333 2990ft 107kts
11-Feb-19 14:03 47.358323 -120.116703 314 2983ft 110kts
11-Feb-19 14:04 47.368016 -120.160981 302 2533ft 134kts
11-Feb-19 14:05 47.389573 -120.193631 314 1354ft 97kts
11-Feb-19 14:06 47.398307 -120.206344 70 1253ft 17kts

Navigation Log

Ident Type
Flight plan parsing failed, navigation log unavailable